Terminal Aerodrome Forecast
Issued by NWS Grand Forks, ND

Home | Current Version | Previous Version | Text Only | Print | Product List | Glossary Off
Versions: 1 2 3 4 5 6 7 8 9 10 11 12 13 14

000
FTUS43 KFGF 150520
TAFFAR
TAF
KFAR 150520Z 1506/1606 33008KT P6SM FEW080
     FM151000 29004KT P6SM SKC
     FM151200 23004KT P6SM FEW200
     FM151800 23008KT P6SM BKN100
     FM152000 26010G18KT P6SM SCT090
     FM160000 29007KT P6SM FEW200=

USA.gov is the U.S. government's official web portal to all federal, state and local government web resources and services.